Etusivu
METAR-TAF:

METAR-TAF

Lentoasemat :

Amman, Jordania

Leveyspiiri: 31-59N, Pituuspiiri: 035-59E, korkeus merenpinnasta: 767 m

Tämänhetkinen sää

Tämä raportti tehtiin 46 minuuttia sitten, kello 01.00 UTC
Tuuli 2 kn lännestä
Lämpötila 9°C
Kosteus 49%
Ilmanpaine 1018 hPa
Näkyvyys: 5000 m
usvaa

METAR: OJAM 230100Z 26002KT 5000 HZ NSC 09/M01 Q1018 NOSIG

Aika: 03:46 (01:46 UTC)

Sääennuste

Tämä raportti tehtiin 2 tuntia ja 46 minuuttia sitten, kello 23.00 UTC
Ennuste voimassa 23. päivästä klo 00 UTC - 24. päivään klo 06 UTC
Tuuli 2 kn eri suunnista
Näkyvyys: 4000 m
laajalle levinnyttä pölyä
Todennäköisyys 30%
23. päivästä klo 03 UTC - 23. päivään klo 06 UTC
Näkyvyys: 3000 m
savua
Tulossa
23. päivästä klo 06 UTC - 23. päivään klo 09 UTC
Tuuli 8 kn idästä/koillisesta
Näkyvyys: 5000 m
usvaa

TAF: OJAM 222300Z 2300/2406 VRB02KT 4000 DU NSC PROB30 2303/2306 3000 FU BECMG 2306/2309 06008KT 5000 HZ

Säähavainnot ja -ennusteet yli 4000 lentoasemalta (METAR- ja TAF-raportit).

Käytössä olevat sääasemat on merkitty karttaan keltaisilla ja punaisilla pisteillä.

Aseta hiiri pisteen päälle nähdäksesi sääaseman nimen.

Klikkaa sitten nähdäksesi säähavainnot ja -ennusteet.

Kartan vaihtaminen: klikkaa mustalla rastilla varustettuja vihreitä pisteitä, niin voit zoomata sisään; viivalla varustettua vihreää pistettä, niin voit zoomata ulos tai vihreitä nuolia, niin pääset viereisille kartoille.


METAR-TAF: